createdAt,value
2018-12-11T00:00:43.167Z,1.15
2018-12-11T00:01:43.146Z,1.18
2018-12-11T00:02:43.139Z,1.18
2018-12-11T00:03:43.114Z,1.15
2018-12-11T00:04:43.094Z,1.15
2018-12-11T00:05:42.828Z,1.11
2018-12-11T00:06:43.055Z,1.11
2018-12-11T00:07:43.038Z,1.07
2018-12-11T00:08:43.017Z,1.07
2018-12-11T00:09:42.751Z,1.08
2018-12-11T00:10:42.978Z,1.1
2018-12-11T00:11:42.958Z,1.04
2018-12-11T00:12:42.695Z,0.97
2018-12-11T00:13:42.927Z,1.08
2018-12-11T00:14:42.656Z,1.11
2018-12-11T00:15:42.639Z,1.12
2018-12-11T00:16:42.867Z,1.11
2018-12-11T00:17:42.851Z,1.1
2018-12-11T00:18:42.834Z,1.07
2018-12-11T00:19:42.811Z,1.08
2018-12-11T00:20:42.548Z,1.14
2018-12-11T00:21:42.782Z,1.12
2018-12-11T00:22:42.869Z,1.18
2018-12-11T00:23:42.737Z,1.17
2018-12-11T00:24:42.719Z,1.21
2018-12-11T00:25:42.452Z,1.15
2018-12-11T00:26:42.683Z,1.21
2018-12-11T00:27:42.675Z,1.2
2018-12-11T00:28:42.648Z,1.18
2018-12-11T00:29:42.627Z,1.24
2018-12-11T00:30:42.358Z,1.24
2018-12-11T00:31:42.588Z,1.24
2018-12-11T00:32:42.571Z,1.22
2018-12-11T00:33:42.555Z,1.22
2018-12-11T00:34:42.532Z,1.28
2018-12-11T00:35:42.514Z,1.29
2018-12-11T00:36:42.495Z,1.3
2018-12-11T00:37:42.477Z,1.29
2018-12-11T00:38:42.457Z,1.2
2018-12-11T00:39:42.450Z,1.28
2018-12-11T00:40:42.424Z,1.29
2018-12-11T00:41:42.404Z,1.26
2018-12-11T00:42:42.386Z,1.29
2018-12-11T00:43:42.371Z,1.33
2018-12-11T00:44:42.348Z,1.33
2018-12-11T00:45:55.071Z,1.28
2018-12-11T00:46:42.319Z,1.33
2018-12-11T00:47:42.304Z,1.26
2018-12-11T00:48:42.286Z,1.42
2018-12-11T00:49:42.262Z,1.35
2018-12-11T00:50:42.242Z,1.36
2018-12-11T00:51:42.222Z,1.36
2018-12-11T00:52:42.207Z,1.38
2018-12-11T00:53:42.185Z,1.38
2018-12-11T00:54:42.171Z,1.38
2018-12-11T00:55:42.158Z,1.33
2018-12-11T00:56:41.883Z,1.36
2018-12-11T00:57:42.113Z,1.42
2018-12-11T00:58:42.094Z,1.44
2018-12-11T00:59:42.077Z,1.39
2018-12-11T01:00:42.062Z,1.35
2018-12-11T01:01:42.036Z,1.4
2018-12-11T01:02:42.020Z,1.36
2018-12-11T01:03:42.006Z,1.36
2018-12-11T01:04:41.998Z,1.35
2018-12-11T01:05:41.717Z,1.33
2018-12-11T01:06:41.947Z,1.35
2018-12-11T01:07:41.687Z,1.39
2018-12-11T01:08:41.670Z,1.42
2018-12-11T01:09:41.896Z,1.4
2018-12-11T01:10:41.871Z,1.42
2018-12-11T01:11:41.855Z,1.39
2018-12-11T01:12:41.586Z,1.38
2018-12-11T01:13:41.822Z,1.42
2018-12-11T01:14:41.555Z,1.42
2018-12-11T01:15:41.784Z,1.38
2018-12-11T01:16:41.522Z,1.39
2018-12-11T01:17:41.746Z,1.36
2018-12-11T01:18:41.480Z,1.35
2018-12-11T01:19:41.705Z,1.36
2018-12-11T01:20:41.690Z,1.36
2018-12-11T01:21:41.683Z,1.36
2018-12-11T01:22:41.658Z,1.42
2018-12-11T01:23:41.638Z,1.32
2018-12-11T01:24:41.616Z,1.35
2018-12-11T01:25:41.602Z,1.35
2018-12-11T01:26:41.577Z,1.33
2018-12-11T01:27:41.311Z,1.24
2018-12-11T01:28:41.541Z,1.35
2018-12-11T01:29:41.520Z,1.32
2018-12-11T01:30:41.510Z,1.2
2018-12-11T01:31:41.484Z,1.24
2018-12-11T01:32:41.475Z,1.26
2018-12-11T01:33:41.452Z,1.18
2018-12-11T01:34:41.437Z,1.15
2018-12-11T01:35:41.414Z,1.2
2018-12-11T01:36:41.403Z,1.17
2018-12-11T01:37:41.376Z,1.1
2018-12-11T01:38:41.359Z,1.1
2018-12-11T01:39:41.336Z,1.1
2018-12-11T01:40:41.325Z,1.02
2018-12-11T01:41:41.303Z,1.12
2018-12-11T01:42:41.279Z,1.1
2018-12-11T01:43:41.263Z,1.07
2018-12-11T01:44:41.246Z,1.1
2018-12-11T01:45:41.227Z,1.02
2018-12-11T01:46:41.357Z,1.02
2018-12-11T01:47:41.193Z,1.11
2018-12-11T01:48:40.922Z,0.94
2018-12-11T01:49:41.149Z,0.99
2018-12-11T01:50:41.129Z,1
2018-12-11T01:51:41.116Z,0.99
2018-12-11T01:52:41.092Z,0.94
2018-12-11T01:53:41.078Z,1.03
2018-12-11T01:54:41.061Z,1.03
2018-12-11T01:55:41.037Z,0.94
2018-12-11T01:56:41.027Z,1.08
2018-12-11T01:57:41.004Z,0.94
2018-12-11T01:58:40.987Z,0.97
2018-12-11T01:59:40.969Z,1.03
2018-12-11T02:00:40.694Z,0.94
2018-12-11T02:01:40.923Z,1.02
2018-12-11T02:02:40.906Z,0.99
2018-12-11T02:03:40.892Z,0.96
2018-12-11T02:04:40.876Z,0.99
2018-12-11T02:05:40.604Z,0.96
2018-12-11T02:06:40.841Z,0.92
2018-12-11T02:07:40.861Z,0.92
2018-12-11T02:08:40.800Z,0.93
2018-12-11T02:09:40.780Z,0.94
2018-12-11T02:10:40.758Z,0.97
2018-12-11T02:11:40.736Z,1
2018-12-11T02:12:40.722Z,0.97
2018-12-11T02:13:40.708Z,1.03
2018-12-11T02:14:40.684Z,1.02
2018-12-11T02:15:40.666Z,0.92
2018-12-11T02:16:40.647Z,0.99
2018-12-11T02:17:40.630Z,1.1
2018-12-11T02:18:40.359Z,0.99
2018-12-11T02:19:40.598Z,1.02
2018-12-11T02:20:40.608Z,1.11
2018-12-11T02:21:46.574Z,1.04
2018-12-11T02:22:40.542Z,1.08
2018-12-11T02:23:40.522Z,1.07
2018-12-11T02:24:40.505Z,1.12
2018-12-11T02:25:40.479Z,1.03
2018-12-11T02:26:40.462Z,1.1
2018-12-11T02:27:40.442Z,1.1
2018-12-11T02:28:40.424Z,1.02
2018-12-11T02:29:40.459Z,1.07
2018-12-11T02:30:40.413Z,1.14
2018-12-11T02:31:40.392Z,1.11
2018-12-11T02:32:40.349Z,1.14
2018-12-11T02:33:40.097Z,1
2018-12-11T02:34:40.320Z,1.1
2018-12-11T02:35:40.294Z,1.12
2018-12-11T02:36:40.288Z,1.08
2018-12-11T02:37:40.258Z,1.11
2018-12-11T02:38:40.238Z,1.12
2018-12-11T02:39:40.230Z,1.08
2018-12-11T02:40:39.963Z,1.11
2018-12-11T02:41:40.186Z,1.12
2018-12-11T02:42:40.163Z,1.1
2018-12-11T02:43:40.146Z,1.12
2018-12-11T02:44:39.877Z,1.11
2018-12-11T02:45:40.108Z,1.11
2018-12-11T02:46:39.607Z,1.18
2018-12-11T02:47:40.068Z,1.11
2018-12-11T02:48:39.800Z,1.2
2018-12-11T02:49:40.033Z,1.11
2018-12-11T02:50:39.770Z,1.12
2018-12-11T02:51:39.999Z,1.14
2018-12-11T02:52:39.736Z,1.1
2018-12-11T02:55:48.439Z,1.12
2018-12-11T02:56:47.924Z,1.11
2018-12-11T02:57:48.396Z,1.12
2018-12-11T02:58:48.369Z,1.12
2018-12-11T02:59:48.357Z,1.04
2018-12-11T03:00:48.332Z,1.07
2018-12-11T03:01:48.331Z,1.1
2018-12-11T03:02:48.298Z,1.08
2018-12-11T03:03:48.281Z,1.1
2018-12-11T03:04:48.260Z,1.07
2018-12-11T03:05:48.298Z,1.1
2018-12-11T03:06:47.973Z,1.11
2018-12-11T03:07:48.204Z,0.97
2018-12-11T03:08:48.188Z,0.96
2018-12-11T03:09:48.170Z,1.04
2018-12-11T03:10:48.256Z,1.02
2018-12-11T03:11:48.205Z,1.08
2018-12-11T03:12:48.108Z,0.93
2018-12-11T03:13:48.101Z,1.02
2018-12-11T03:14:48.072Z,1.02
2018-12-11T03:15:48.053Z,1.08
2018-12-11T03:16:48.057Z,0.93
2018-12-11T03:17:48.030Z,0.96
2018-12-11T03:18:48.004Z,1.04
2018-12-11T03:19:47.978Z,1.02
2018-12-11T03:20:47.970Z,0.99
2018-12-11T03:21:47.945Z,0.97
2018-12-11T03:22:47.930Z,0.97
2018-12-11T03:23:47.930Z,1
2018-12-11T03:24:47.891Z,0.94
2018-12-11T03:25:47.619Z,0.94
2018-12-11T03:26:47.849Z,1.02
2018-12-11T03:27:47.838Z,0.99
2018-12-11T03:28:47.820Z,1
2018-12-11T03:29:47.790Z,0.96
2018-12-11T03:30:47.802Z,0.97
2018-12-11T03:31:47.775Z,0.97
2018-12-11T03:32:47.765Z,0.99
2018-12-11T03:33:47.722Z,0.89
2018-12-11T03:34:47.701Z,0.89
2018-12-11T03:35:47.700Z,1
2018-12-11T03:36:47.412Z,0.97
2018-12-11T03:37:47.642Z,0.9
2018-12-11T03:38:47.430Z,0.96
2018-12-11T03:39:47.608Z,0.93
2018-12-11T03:40:47.619Z,0.85
2018-12-11T03:41:47.564Z,0.93
2018-12-11T03:42:47.566Z,0.93
2018-12-11T03:43:47.292Z,0.93
2018-12-11T03:44:47.519Z,0.89
2018-12-11T03:45:47.245Z,0.97
2018-12-11T03:46:47.481Z,0.89
2018-12-11T03:47:47.214Z,0.86
2018-12-11T03:48:47.443Z,0.93
2018-12-11T03:49:47.424Z,0.94
2018-12-11T03:50:47.412Z,0.9
2018-12-11T03:51:47.390Z,0.94
2018-12-11T03:52:47.368Z,0.93
2018-12-11T03:53:47.105Z,0.92
2018-12-11T03:54:47.078Z,0.94
2018-12-11T03:55:47.318Z,1.02
2018-12-11T03:56:47.297Z,0.9
2018-12-11T03:57:47.288Z,0.97
2018-12-11T03:58:47.254Z,0.94
2018-12-11T03:59:46.985Z,0.92
2018-12-11T04:00:47.211Z,0.92
2018-12-11T04:01:47.205Z,0.97
2018-12-11T04:02:47.169Z,1
2018-12-11T04:03:46.911Z,0.94
2018-12-11T04:04:47.140Z,0.99
2018-12-11T04:05:46.871Z,0.92
2018-12-11T04:06:47.099Z,0.93
2018-12-11T04:07:46.861Z,1.02
2018-12-11T04:08:47.073Z,0.97
2018-12-11T04:09:46.811Z,0.99
2018-12-11T04:10:47.036Z,0.94
2018-12-11T04:11:47.004Z,0.86
2018-12-11T04:12:46.737Z,0.96
2018-12-11T04:13:46.718Z,0.97
2018-12-11T04:14:46.952Z,0.9
2018-12-11T04:15:46.939Z,0.94
2018-12-11T04:16:46.918Z,0.93
2018-12-11T04:17:46.911Z,1
2018-12-11T04:18:46.880Z,0.97
2018-12-11T04:19:46.604Z,0.94
2018-12-11T04:20:46.837Z,0.93
2018-12-11T04:21:46.818Z,0.93
2018-12-11T04:22:46.805Z,0.93
2018-12-11T04:23:46.788Z,0.96
2018-12-11T04:24:46.514Z,0.94
2018-12-11T04:25:46.742Z,0.94
2018-12-11T04:26:46.729Z,0.9
2018-12-11T04:27:46.462Z,0.96
2018-12-11T04:28:46.445Z,0.9
2018-12-11T04:29:46.666Z,0.99
2018-12-11T04:30:46.662Z,0.99
2018-12-11T04:31:46.635Z,0.93
2018-12-11T04:32:46.608Z,0.94
2018-12-11T04:33:46.599Z,0.9
2018-12-11T04:34:46.579Z,1.02
2018-12-11T04:35:47.307Z,0.92
2018-12-11T04:36:46.538Z,0.94
2018-12-11T04:37:46.519Z,0.9
2018-12-11T04:38:46.251Z,0.89
2018-12-11T04:39:46.482Z,0.86
2018-12-11T04:40:46.461Z,0.89
2018-12-11T04:41:46.519Z,0.89
2018-12-11T04:42:46.426Z,0.89
2018-12-11T04:43:46.414Z,0.9
2018-12-11T04:44:46.400Z,0.93
2018-12-11T04:45:46.370Z,0.93
2018-12-11T04:46:46.362Z,0.9
2018-12-11T04:47:46.334Z,0.86
2018-12-11T04:48:46.309Z,0.85
2018-12-11T04:49:46.359Z,0.93
2018-12-11T04:50:46.272Z,0.93
2018-12-11T04:51:46.251Z,0.85
2018-12-11T04:52:46.241Z,0.9
2018-12-11T04:53:46.218Z,0.96
2018-12-11T04:54:46.199Z,0.9
2018-12-11T04:55:46.184Z,0.89
2018-12-11T04:56:46.165Z,0.89
2018-12-11T04:57:46.197Z,0.93
2018-12-11T04:58:46.124Z,0.9
2018-12-11T04:59:46.106Z,0.94
2018-12-11T05:00:46.087Z,0.93
2018-12-11T05:01:46.067Z,0.93
2018-12-11T05:02:46.047Z,1
2018-12-11T05:03:46.029Z,0.93
2018-12-11T05:04:46.008Z,0.94
2018-12-11T05:05:45.991Z,0.97
2018-12-11T05:06:45.979Z,0.99
2018-12-11T05:07:45.957Z,0.97
2018-12-11T05:08:45.940Z,0.94
2018-12-11T05:09:45.912Z,0.97
2018-12-11T05:10:45.897Z,1.02
2018-12-11T05:11:45.884Z,0.96
2018-12-11T05:12:45.858Z,0.97
2018-12-11T05:13:45.839Z,0.96
2018-12-11T05:14:45.822Z,1
2018-12-11T05:15:45.805Z,1
2018-12-11T05:16:45.783Z,0.99
2018-12-11T05:17:45.766Z,1.02
2018-12-11T05:18:45.749Z,0.96
2018-12-11T05:19:45.735Z,1.02
2018-12-11T05:20:45.709Z,1.04
2018-12-11T05:21:45.706Z,0.93
2018-12-11T05:22:45.428Z,1
2018-12-11T05:23:45.657Z,1.02
2018-12-11T05:24:45.639Z,1.02
2018-12-11T05:25:45.684Z,1.04
2018-12-11T05:26:45.599Z,1.07
2018-12-11T05:27:45.577Z,1
2018-12-11T05:28:45.559Z,1.03
2018-12-11T05:29:45.543Z,0.93
2018-12-11T05:30:45.524Z,1.07
2018-12-11T05:31:45.501Z,1.11
2018-12-11T05:32:45.488Z,1.03
2018-12-11T05:33:45.486Z,1.02
2018-12-11T05:34:45.462Z,1.14
2018-12-11T05:35:45.434Z,1.08
2018-12-11T05:36:45.415Z,1.02
2018-12-11T05:37:45.393Z,1.11
2018-12-11T05:38:45.374Z,1.02
2018-12-11T05:39:45.354Z,1.1
2018-12-11T05:40:44.839Z,1.1
2018-12-11T05:41:45.328Z,1.12
2018-12-11T05:42:45.298Z,1.08
2018-12-11T05:43:45.285Z,1.07
2018-12-11T05:44:45.261Z,1.07
2018-12-11T05:45:45.242Z,1.1
2018-12-11T05:46:45.226Z,1.03
2018-12-11T05:47:45.210Z,1.1
2018-12-11T05:48:45.185Z,1.04
2018-12-11T05:49:45.170Z,1.12
2018-12-11T05:50:45.151Z,1.08
2018-12-11T05:51:45.136Z,1.08
2018-12-11T05:52:44.886Z,1.11
2018-12-11T05:53:45.093Z,1.14
2018-12-11T05:54:44.577Z,1.1
2018-12-11T05:55:45.055Z,1.11
2018-12-11T05:56:45.039Z,1.11
2018-12-11T05:57:45.024Z,1.15
2018-12-11T05:58:45.000Z,1.14
2018-12-11T05:59:44.987Z,1.14
2018-12-11T06:00:44.963Z,1.17
2018-12-11T06:01:44.947Z,1.08
2018-12-11T06:02:44.924Z,1.12
2018-12-11T06:03:44.906Z,1.1
2018-12-11T06:04:44.888Z,1.17
2018-12-11T06:05:44.876Z,1.1
2018-12-11T06:06:44.969Z,1.17
2018-12-11T06:07:44.387Z,1.08
2018-12-11T06:08:44.818Z,1.17
2018-12-11T06:09:44.793Z,1.07
2018-12-11T06:10:44.526Z,1.12
2018-12-11T06:11:44.759Z,1.03
2018-12-11T06:12:44.739Z,1.07
2018-12-11T06:13:44.722Z,1.11
2018-12-11T06:14:44.702Z,1.1
2018-12-11T06:15:44.681Z,1.07
2018-12-11T06:16:44.670Z,1.11
2018-12-11T06:17:44.643Z,1.1
2018-12-11T06:18:44.626Z,1.1
2018-12-11T06:19:44.611Z,1.07
2018-12-11T06:20:44.597Z,1.1
2018-12-11T06:21:44.572Z,1.12
2018-12-11T06:22:44.553Z,1.11
2018-12-11T06:23:44.286Z,1.11
2018-12-11T06:24:44.651Z,1.07
2018-12-11T06:25:44.497Z,1.04
2018-12-11T06:26:44.233Z,1.14
2018-12-11T06:27:44.458Z,1.11
2018-12-11T06:28:44.196Z,1.08
2018-12-11T06:29:44.427Z,1.11
2018-12-11T06:30:44.450Z,1.07
2018-12-11T06:31:44.380Z,1.08
2018-12-11T06:32:44.173Z,1.03
2018-12-11T06:33:44.353Z,1.02
2018-12-11T06:34:44.328Z,1.1
2018-12-11T06:35:44.308Z,1.08
2018-12-11T06:36:44.290Z,1.08
2018-12-11T06:37:44.274Z,1.08
2018-12-11T06:38:44.253Z,1.11
2018-12-11T06:39:43.987Z,1.08
2018-12-11T06:40:43.976Z,1.11
2018-12-11T06:41:44.199Z,1.03
2018-12-11T06:42:44.179Z,1.11
2018-12-11T06:43:44.225Z,1.11
2018-12-11T06:44:43.890Z,1.12
2018-12-11T06:45:44.134Z,1.11
2018-12-11T06:46:43.854Z,1.11
2018-12-11T06:47:44.089Z,1.11
2018-12-11T06:48:44.072Z,1.03
2018-12-11T06:49:44.045Z,1.07
2018-12-11T06:50:44.028Z,1.07
2018-12-11T06:51:44.014Z,1.18
2018-12-11T06:52:43.996Z,1.08
2018-12-11T06:53:43.975Z,1.12
2018-12-11T06:54:43.956Z,1.12
2018-12-11T06:55:43.937Z,1.2
2018-12-11T06:56:43.921Z,1.14
2018-12-11T06:57:43.897Z,1.11
2018-12-11T06:58:43.883Z,1.14
2018-12-11T06:59:43.861Z,1.1
2018-12-11T07:00:43.844Z,1.15
2018-12-11T07:01:43.826Z,1.12
2018-12-11T07:02:43.811Z,1.14
2018-12-11T07:03:43.788Z,1.12
2018-12-11T07:04:43.805Z,1.17
2018-12-11T07:05:43.758Z,1.18
2018-12-11T07:06:43.736Z,1.1
2018-12-11T07:07:43.716Z,1.11
2018-12-11T07:08:43.692Z,1.11
2018-12-11T07:09:43.740Z,1.12
2018-12-11T07:10:43.658Z,1.18
2018-12-11T07:11:43.639Z,1.14
2018-12-11T07:12:43.703Z,1.2
2018-12-11T07:13:43.601Z,1.2
2018-12-11T07:14:43.583Z,1.21
2018-12-11T07:15:43.563Z,1.21
2018-12-11T07:16:43.565Z,1.2
2018-12-11T07:17:43.527Z,1.22
2018-12-11T07:18:43.564Z,1.12
2018-12-11T07:19:43.487Z,1.17
2018-12-11T07:20:43.471Z,1.21
2018-12-11T07:21:43.457Z,1.18
2018-12-11T07:22:43.434Z,1.17
2018-12-11T07:23:43.444Z,1.18
2018-12-11T07:24:43.405Z,1.22
2018-12-11T07:25:43.379Z,1.21
2018-12-11T07:26:43.359Z,1.18
2018-12-11T07:27:43.348Z,1.24
2018-12-11T07:28:43.324Z,1.28
2018-12-11T07:29:43.308Z,1.2
2018-12-11T07:30:43.291Z,1.18
2018-12-11T07:31:43.268Z,1.2
2018-12-11T07:32:43.247Z,1.26
2018-12-11T07:33:43.228Z,1.32
2018-12-11T07:34:43.212Z,1.21
2018-12-11T07:35:42.946Z,1.32
2018-12-11T07:36:43.176Z,1.24
2018-12-11T07:37:43.156Z,1.36
2018-12-11T07:38:43.136Z,1.32
2018-12-11T07:39:43.124Z,1.32
2018-12-11T07:40:43.106Z,1.39
2018-12-11T07:41:43.084Z,1.33
2018-12-11T07:42:43.061Z,1.35
2018-12-11T07:43:43.044Z,1.32
2018-12-11T07:44:43.030Z,1.32
2018-12-11T07:45:43.009Z,1.3
2018-12-11T07:46:42.994Z,1.3
2018-12-11T07:47:42.972Z,1.2
2018-12-11T07:48:42.956Z,1.29
2018-12-11T07:49:42.934Z,1.28
2018-12-11T07:50:42.934Z,1.3
2018-12-11T07:51:42.898Z,1.24
2018-12-11T07:52:42.879Z,1.18
2018-12-11T07:53:42.865Z,1.2
2018-12-11T07:54:42.843Z,1.17
2018-12-11T07:55:42.825Z,1.24
2018-12-11T07:56:42.811Z,1.21
2018-12-11T07:57:42.785Z,1.18
2018-12-11T07:58:42.770Z,1.15
2018-12-11T07:59:42.750Z,1.18
2018-12-11T08:00:42.729Z,1.2
2018-12-11T08:01:42.714Z,1.29
2018-12-11T08:02:42.699Z,1.22
2018-12-11T08:03:42.678Z,1.18
2018-12-11T08:04:42.657Z,1.26
2018-12-11T08:05:42.391Z,1.29
2018-12-11T08:06:42.631Z,1.24
2018-12-11T08:07:42.605Z,1.21
2018-12-11T08:08:42.338Z,1.15
2018-12-11T08:09:42.564Z,1.22
2018-12-11T08:10:42.549Z,1.29
2018-12-11T08:11:42.535Z,1.22
2018-12-11T08:12:42.517Z,1.18
2018-12-11T08:13:42.490Z,1.28
2018-12-11T08:14:42.471Z,1.28
2018-12-11T08:15:42.457Z,1.18
2018-12-11T08:16:42.186Z,1.29
2018-12-11T08:17:42.437Z,1.28
2018-12-11T08:18:42.162Z,1.2
2018-12-11T08:19:42.385Z,1.3
2018-12-11T08:20:42.361Z,1.29
2018-12-11T08:21:42.342Z,1.38
2018-12-11T08:22:42.331Z,1.29
2018-12-11T08:23:42.309Z,1.4
2018-12-11T08:24:42.371Z,1.4
2018-12-11T08:25:42.276Z,1.38
2018-12-11T08:26:42.253Z,1.3
2018-12-11T08:27:42.233Z,1.33
2018-12-11T08:28:42.383Z,1.4
2018-12-11T08:29:42.223Z,1.46
2018-12-11T08:30:42.187Z,1.38
2018-12-11T08:31:42.157Z,1.46
2018-12-11T08:32:42.138Z,1.47
2018-12-11T08:33:41.876Z,1.48
2018-12-11T08:34:42.105Z,1.44
2018-12-11T08:35:42.099Z,1.36
2018-12-11T08:36:42.067Z,1.51
2018-12-11T08:37:42.046Z,1.48
2018-12-11T08:38:42.031Z,1.47
2018-12-11T08:39:42.016Z,1.48
2018-12-11T08:40:42.001Z,1.4
2018-12-11T08:41:41.976Z,1.48
2018-12-11T08:42:42.004Z,1.5
2018-12-11T08:43:41.939Z,1.47
2018-12-11T08:44:41.921Z,1.51
2018-12-11T08:45:41.915Z,1.48
2018-12-11T08:46:41.893Z,1.48
2018-12-11T08:47:41.866Z,1.39
2018-12-11T08:48:41.857Z,1.48
2018-12-11T08:49:41.837Z,1.53
2018-12-11T08:50:41.564Z,1.54
2018-12-11T08:51:41.793Z,1.4
2018-12-11T08:52:41.772Z,1.54
2018-12-11T08:53:41.518Z,1.44
2018-12-11T08:54:41.738Z,1.54
2018-12-11T08:55:41.723Z,1.44
2018-12-11T08:56:41.449Z,1.53
2018-12-11T08:57:41.681Z,1.48
2018-12-11T08:58:41.673Z,1.48
2018-12-11T08:59:41.654Z,1.57
2018-12-11T09:00:41.636Z,1.54
2018-12-11T09:01:41.615Z,1.48
2018-12-11T09:02:41.604Z,1.57
2018-12-11T09:03:41.327Z,1.6
2018-12-11T09:04:41.418Z,1.57
2018-12-11T09:05:41.539Z,1.64
2018-12-11T09:06:41.522Z,1.6
2018-12-11T09:07:41.507Z,1.68
2018-12-11T09:08:41.485Z,1.65
2018-12-11T09:09:41.467Z,1.66
2018-12-11T09:10:41.445Z,1.71
2018-12-11T09:11:41.426Z,1.58
2018-12-11T09:12:41.417Z,1.71
2018-12-11T09:13:41.397Z,1.6
2018-12-11T09:14:41.373Z,1.58
2018-12-11T09:15:41.356Z,1.64
2018-12-11T09:16:41.337Z,1.6
2018-12-11T09:17:41.321Z,1.66
2018-12-11T09:18:41.053Z,1.75
2018-12-11T09:19:41.284Z,1.75
2018-12-11T09:20:41.263Z,1.76
2018-12-11T09:21:41.244Z,1.76
2018-12-11T09:22:41.246Z,1.69
2018-12-11T09:23:41.215Z,1.78
2018-12-11T09:24:41.347Z,1.78
2018-12-11T09:25:41.181Z,1.71
2018-12-11T09:26:41.157Z,1.74
2018-12-11T09:27:41.139Z,1.68
2018-12-11T09:28:41.122Z,1.71
2018-12-11T09:29:41.111Z,1.83
2018-12-11T09:30:41.088Z,1.69
2018-12-11T09:31:41.068Z,1.83
2018-12-11T09:32:41.049Z,1.76
2018-12-11T09:33:41.028Z,1.84
2018-12-11T09:34:41.021Z,1.82
2018-12-11T09:35:40.992Z,1.87
2018-12-11T09:36:40.978Z,1.84
2018-12-11T09:37:40.952Z,1.84
2018-12-11T09:38:40.940Z,1.87
2018-12-11T09:39:40.919Z,1.84
2018-12-11T09:40:40.905Z,1.84
2018-12-11T09:41:40.639Z,1.83
2018-12-11T09:42:40.865Z,1.84
2018-12-11T09:43:40.845Z,1.84
2018-12-11T09:44:40.830Z,1.98
2018-12-11T09:45:40.564Z,1.98
2018-12-11T09:46:40.855Z,1.86
2018-12-11T09:47:40.524Z,1.87
2018-12-11T09:48:40.759Z,1.84
2018-12-11T09:49:40.748Z,1.9
2018-12-11T09:50:40.729Z,1.89
2018-12-11T09:51:40.712Z,1.83
2018-12-11T09:52:40.686Z,1.84
2018-12-11T09:53:40.670Z,1.84
2018-12-11T09:54:40.662Z,1.72
2018-12-11T09:55:40.631Z,1.76
2018-12-11T09:56:40.618Z,1.79
2018-12-11T09:57:40.595Z,1.72
2018-12-11T09:58:40.578Z,1.75
2018-12-11T09:59:40.558Z,1.69
2018-12-11T10:00:40.684Z,1.75
2018-12-11T10:01:40.524Z,1.74
2018-12-11T10:02:40.260Z,1.76
2018-12-11T10:03:40.768Z,1.75
2018-12-11T10:04:40.470Z,1.71
2018-12-11T10:05:40.452Z,1.75
2018-12-11T10:06:40.436Z,1.71
2018-12-11T10:07:40.415Z,1.72
2018-12-11T10:08:40.397Z,1.72
2018-12-11T10:09:40.379Z,1.71
2018-12-11T10:10:40.362Z,1.76
2018-12-11T10:11:40.345Z,1.74
2018-12-11T10:12:40.323Z,1.68
2018-12-11T10:13:40.307Z,1.6
2018-12-11T10:14:40.287Z,1.58
2018-12-11T10:15:40.272Z,1.68
2018-12-11T10:16:40.250Z,1.6
2018-12-11T10:17:39.991Z,1.61
2018-12-11T10:18:40.215Z,1.66
2018-12-11T10:19:40.198Z,1.71
2018-12-11T10:20:40.304Z,1.71
2018-12-11T10:21:39.916Z,1.75
2018-12-11T10:22:39.892Z,1.69
2018-12-11T10:23:40.134Z,1.72
2018-12-11T10:24:40.114Z,1.78
2018-12-11T10:25:40.095Z,1.75
2018-12-11T10:26:40.383Z,1.76
2018-12-11T10:27:40.055Z,1.74
2018-12-11T10:28:40.032Z,1.75
2018-12-11T10:29:40.018Z,1.75
2018-12-11T10:30:40.004Z,1.76
2018-12-11T10:31:39.979Z,1.78
2018-12-11T10:32:39.729Z,1.75
2018-12-11T10:33:39.702Z,1.69
2018-12-11T10:34:39.953Z,1.71
2018-12-11T10:35:39.905Z,1.66
2018-12-11T10:36:39.886Z,1.66
2018-12-11T10:37:39.870Z,1.68
2018-12-11T10:38:39.609Z,1.6
2018-12-11T10:39:39.838Z,1.66
2018-12-11T10:40:39.567Z,1.66
2018-12-11T10:41:39.855Z,1.71
2018-12-11T10:42:39.535Z,1.69
2018-12-11T10:43:39.767Z,1.58
2018-12-11T10:44:39.750Z,1.65
2018-12-11T10:45:39.730Z,1.66
2018-12-11T10:46:39.748Z,1.65
2018-12-11T10:47:39.441Z,1.64
2018-12-11T10:48:39.440Z,1.61
2018-12-11T10:49:39.657Z,1.69
2018-12-11T10:50:39.630Z,1.6
2018-12-11T10:51:39.625Z,1.6
2018-12-11T10:52:39.596Z,1.61
2018-12-11T10:53:39.575Z,1.6
2018-12-11T10:54:39.565Z,1.6
2018-12-11T10:55:39.290Z,1.58
2018-12-11T10:56:39.521Z,1.56
2018-12-11T10:57:39.504Z,1.57
2018-12-11T10:58:39.487Z,1.58
2018-12-11T10:59:39.469Z,1.6
2018-12-11T11:00:39.202Z,1.51
2018-12-11T11:01:39.433Z,1.5
2018-12-11T11:02:39.425Z,1.58
2018-12-11T11:03:39.400Z,1.57
2018-12-11T11:04:39.377Z,1.57
2018-12-11T11:05:39.372Z,1.58
2018-12-11T11:06:39.344Z,1.58
2018-12-11T11:07:39.324Z,1.56
2018-12-11T11:08:39.311Z,1.56
2018-12-11T11:09:39.303Z,1.56
2018-12-11T11:10:39.322Z,1.56
2018-12-11T11:11:39.276Z,1.57
2018-12-11T11:12:39.274Z,1.54
2018-12-11T11:13:39.219Z,1.58
2018-12-11T11:14:38.995Z,1.5
2018-12-11T11:15:39.280Z,1.58
2018-12-11T11:16:38.911Z,1.54
2018-12-11T11:17:39.148Z,1.6
2018-12-11T11:18:38.881Z,1.58
2018-12-11T11:19:39.118Z,1.51
2018-12-11T11:20:39.086Z,1.57
2018-12-11T11:21:39.073Z,1.54
2018-12-11T11:22:39.049Z,1.58
2018-12-11T11:23:39.031Z,1.57
2018-12-11T11:24:39.021Z,1.64
2018-12-11T11:25:38.993Z,1.64
2018-12-11T11:26:38.974Z,1.6
2018-12-11T11:27:40.285Z,1.65
2018-12-11T11:28:38.691Z,1.58
2018-12-11T11:29:38.921Z,1.66
2018-12-11T11:30:38.903Z,1.56
2018-12-11T11:31:38.883Z,1.61
2018-12-11T11:32:38.870Z,1.56
2018-12-11T11:33:38.848Z,1.66
2018-12-11T11:34:38.834Z,1.57
2018-12-11T11:35:38.316Z,1.64
2018-12-11T11:36:38.794Z,1.57
2018-12-11T11:37:38.776Z,1.69
2018-12-11T11:38:38.754Z,1.68
2018-12-11T11:39:38.491Z,1.71
2018-12-11T11:40:38.717Z,1.68
2018-12-11T11:41:38.700Z,1.6
2018-12-11T11:42:38.685Z,1.68
2018-12-11T11:43:38.420Z,1.64
2018-12-11T11:44:38.647Z,1.65
2018-12-11T11:45:38.629Z,1.65
2018-12-11T11:46:38.609Z,1.6
2018-12-11T11:47:38.595Z,1.64
2018-12-11T11:48:38.571Z,1.6
2018-12-11T11:49:38.556Z,1.61
2018-12-11T11:50:38.542Z,1.5
2018-12-11T11:51:38.516Z,1.6
2018-12-11T11:52:38.499Z,1.6
2018-12-11T11:53:38.484Z,1.57
2018-12-11T11:54:38.464Z,1.58
2018-12-11T11:55:38.442Z,1.58
2018-12-11T11:56:38.429Z,1.58
2018-12-11T11:57:38.413Z,1.58
2018-12-11T11:58:38.392Z,1.57
2018-12-11T11:59:38.369Z,1.53
2018-12-11T12:00:38.352Z,1.57
2018-12-11T12:01:37.836Z,1.56
2018-12-11T12:02:38.381Z,1.48
2018-12-11T12:03:38.302Z,1.56
2018-12-11T12:04:38.279Z,1.57
2018-12-11T12:05:38.262Z,1.5
2018-12-11T12:06:38.243Z,1.48
2018-12-11T12:07:38.242Z,1.54
2018-12-11T12:08:38.203Z,1.47
2018-12-11T12:09:37.938Z,1.56
2018-12-11T12:10:38.174Z,1.56
2018-12-11T12:11:37.900Z,1.56
2018-12-11T12:12:39.314Z,1.53
2018-12-11T12:13:38.116Z,1.58
2018-12-11T12:14:37.849Z,1.5
2018-12-11T12:15:38.076Z,1.56
2018-12-11T12:16:37.562Z,1.56
2018-12-11T12:17:38.041Z,1.46
2018-12-11T12:18:38.022Z,1.53
2018-12-11T12:19:38.009Z,1.56
2018-12-11T12:20:37.985Z,1.53
2018-12-11T12:21:37.779Z,1.5
2018-12-11T12:22:37.949Z,1.56
2018-12-11T12:23:37.939Z,1.53
2018-12-11T12:24:37.914Z,1.51
2018-12-11T12:25:37.896Z,1.5
2018-12-11T12:26:37.881Z,1.51
2018-12-11T12:27:37.619Z,1.54
2018-12-11T12:28:37.843Z,1.51
2018-12-11T12:29:37.817Z,1.53
2018-12-11T12:30:37.812Z,1.51
2018-12-11T12:31:37.792Z,1.47
2018-12-11T12:32:37.765Z,1.54
2018-12-11T12:33:37.750Z,1.5
2018-12-11T12:34:37.482Z,1.42
2018-12-11T12:35:37.717Z,1.53
2018-12-11T12:36:37.694Z,1.42
2018-12-11T12:37:37.674Z,1.51
2018-12-11T12:38:37.412Z,1.42
2018-12-11T12:39:37.640Z,1.39
2018-12-11T12:40:37.620Z,1.44
2018-12-11T12:41:37.601Z,1.48
2018-12-11T12:42:37.582Z,1.54
2018-12-11T12:43:37.571Z,1.51
2018-12-11T12:44:37.544Z,1.48
2018-12-11T12:45:37.524Z,1.38
2018-12-11T12:46:37.511Z,1.5
2018-12-11T12:47:37.491Z,1.4
2018-12-11T12:48:37.226Z,1.33
2018-12-11T12:49:37.453Z,1.36
2018-12-11T12:50:37.436Z,1.33
2018-12-11T12:51:37.418Z,1.46
2018-12-11T12:52:37.398Z,1.36
2018-12-11T12:53:37.383Z,1.39
2018-12-11T12:54:37.115Z,1.35
2018-12-11T12:55:37.353Z,1.38
2018-12-11T12:56:37.345Z,1.38
2018-12-11T12:57:37.305Z,1.36
2018-12-11T12:58:37.292Z,1.4
2018-12-11T12:59:37.272Z,1.46
2018-12-11T13:00:37.259Z,1.39
2018-12-11T13:01:36.993Z,1.32
2018-12-11T13:02:37.222Z,1.39
2018-12-11T13:03:37.197Z,1.4
2018-12-11T13:04:37.193Z,1.38
2018-12-11T13:05:37.167Z,1.38
2018-12-11T13:06:37.145Z,1.38
2018-12-11T13:07:37.125Z,1.39
2018-12-11T13:08:36.862Z,1.4
2018-12-11T13:09:36.842Z,1.36
2018-12-11T13:10:38.523Z,1.33
2018-12-11T13:11:36.806Z,1.26
2018-12-11T13:12:37.039Z,1.33
2018-12-11T13:13:37.011Z,1.39
2018-12-11T13:14:36.991Z,1.38
2018-12-11T13:15:36.981Z,1.3
2018-12-11T13:16:37.081Z,1.33
2018-12-11T13:17:36.958Z,1.42
2018-12-11T13:18:36.920Z,1.32
2018-12-11T13:19:36.901Z,1.28
2018-12-11T13:20:36.889Z,1.3
2018-12-11T13:21:36.864Z,1.3
2018-12-11T13:22:36.610Z,1.33
2018-12-11T13:23:36.829Z,1.33
2018-12-11T13:24:36.317Z,1.3
2018-12-11T13:25:36.796Z,1.26